createdAt,value
2023-04-02T00:00:29.453Z,7.86
2023-04-02T00:02:51.095Z,7.87
2023-04-02T00:05:30.167Z,7.84
2023-04-02T00:07:58.041Z,7.78
2023-04-02T00:10:39.858Z,7.76
2023-04-02T00:13:10.559Z,7.79
2023-04-02T00:15:34.130Z,7.72
2023-04-02T00:17:57.942Z,7.75
2023-04-02T00:20:22.131Z,7.76
2023-04-02T00:22:45.004Z,7.71
2023-04-02T00:25:14.109Z,7.70
2023-04-02T00:27:36.660Z,7.59
2023-04-02T00:29:59.801Z,7.53
2023-04-02T00:32:29.041Z,7.47
2023-04-02T00:34:51.589Z,7.45
2023-04-02T00:37:25.195Z,7.44
2023-04-02T00:39:47.784Z,7.44
2023-04-02T00:42:12.900Z,7.39
2023-04-02T00:44:44.037Z,7.40
2023-04-02T00:47:26.943Z,7.36
2023-04-02T00:49:59.448Z,7.34
2023-04-02T00:52:28.365Z,7.33
2023-04-02T00:55:01.096Z,7.23
2023-04-02T00:57:28.290Z,7.20
2023-04-02T01:00:21.410Z,7.18
2023-04-02T01:02:43.214Z,7.27
2023-04-02T01:05:25.827Z,7.21
2023-04-02T01:08:12.958Z,7.21
2023-04-02T01:10:58.650Z,7.18
2023-04-02T01:13:32.749Z,7.16
2023-04-02T01:16:16.891Z,7.14
2023-04-02T01:19:04.587Z,7.10
2023-04-02T01:22:08.637Z,7.11
2023-04-02T01:24:33.992Z,7.13
2023-04-02T01:27:04.095Z,7.13
2023-04-02T01:29:39.137Z,7.10
2023-04-02T01:32:07.776Z,7.08
2023-04-02T01:34:31.167Z,7.06
2023-04-02T01:37:32.229Z,7.06
2023-04-02T01:40:13.004Z,7.06
2023-04-02T01:42:46.046Z,7.06
2023-04-02T01:45:19.562Z,7.05
2023-04-02T01:47:44.753Z,7.06
2023-04-02T01:50:44.116Z,7.10
2023-04-02T01:53:15.083Z,7.06
2023-04-02T01:55:57.310Z,6.98
2023-04-02T01:58:26.392Z,6.98
2023-04-02T02:01:02.116Z,6.91
2023-04-02T02:03:25.329Z,6.90
2023-04-02T02:05:47.505Z,6.89
2023-04-02T02:08:31.506Z,6.85
2023-04-02T02:10:53.468Z,6.82
2023-04-02T02:13:16.436Z,6.85
2023-04-02T02:15:38.194Z,6.80
2023-04-02T02:18:06.872Z,6.77
2023-04-02T02:20:29.213Z,6.78
2023-04-02T02:22:51.960Z,6.75
2023-04-02T02:25:32.530Z,6.78
2023-04-02T02:28:14.156Z,6.73
2023-04-02T02:30:49.110Z,6.67
2023-04-02T02:33:24.083Z,6.67
2023-04-02T02:36:35.764Z,6.66
2023-04-02T02:39:13.410Z,6.57
2023-04-02T02:41:42.311Z,6.51
2023-04-02T02:44:11.096Z,6.45
2023-04-02T02:46:38.718Z,6.47
2023-04-02T02:49:05.663Z,6.47
2023-04-02T02:51:40.860Z,6.52
2023-04-02T02:54:06.695Z,6.50
2023-04-02T02:56:37.286Z,6.47
2023-04-02T02:59:00.319Z,6.46
2023-04-02T03:01:30.453Z,6.43
2023-04-02T03:03:55.435Z,6.36
2023-04-02T03:06:20.746Z,6.32
2023-04-02T03:09:14.895Z,6.33
2023-04-02T03:11:54.584Z,6.39
2023-04-02T03:14:32.654Z,6.45
2023-04-02T03:17:08.979Z,6.48
2023-04-02T03:19:46.332Z,6.50
2023-04-02T03:22:25.116Z,6.52
2023-04-02T03:25:02.075Z,6.43
2023-04-02T03:27:34.805Z,6.40
2023-04-02T03:30:09.621Z,6.34
2023-04-02T03:32:38.448Z,6.33
2023-04-02T03:35:22.651Z,6.25
2023-04-02T03:38:27.071Z,6.19
2023-04-02T03:41:47.298Z,6.15
2023-04-02T03:44:28.453Z,6.11
2023-04-02T03:47:10.718Z,6.08
2023-04-02T03:50:03.180Z,5.99
2023-04-02T03:52:29.281Z,5.97
2023-04-02T03:54:57.020Z,5.97
2023-04-02T03:57:33.134Z,5.88
2023-04-02T04:00:14.412Z,5.91
2023-04-02T04:02:54.721Z,5.88
2023-04-02T04:05:37.881Z,5.91
2023-04-02T04:08:18.690Z,5.89
2023-04-02T04:10:43.241Z,5.87
2023-04-02T04:13:38.978Z,5.87
2023-04-02T04:16:32.721Z,5.84
2023-04-02T04:19:24.820Z,5.72
2023-04-02T04:22:30.092Z,5.68
2023-04-02T04:25:33.821Z,5.68
2023-04-02T04:28:34.039Z,5.70
2023-04-02T04:31:31.040Z,5.65
2023-04-02T04:34:22.918Z,5.61
2023-04-02T04:37:07.958Z,5.61
2023-04-02T04:40:09.224Z,5.56
2023-04-02T04:42:58.187Z,5.45
2023-04-02T04:46:16.454Z,5.47
2023-04-02T04:49:09.477Z,5.45
2023-04-02T04:51:57.340Z,5.44
2023-04-02T04:54:40.395Z,5.42
2023-04-02T04:57:33.790Z,5.43
2023-04-02T05:00:45.502Z,5.44
2023-04-02T05:03:33.033Z,5.44
2023-04-02T05:06:34.036Z,5.44
2023-04-02T05:09:49.908Z,5.39
2023-04-02T05:12:51.517Z,5.44
2023-04-02T05:15:32.102Z,5.40
2023-04-02T05:18:34.720Z,5.39
2023-04-02T05:21:16.465Z,5.32
2023-04-02T05:24:00.164Z,5.28
2023-04-02T05:26:42.849Z,5.31
2023-04-02T05:29:26.488Z,5.21
2023-04-02T05:32:04.270Z,5.26
2023-04-02T05:34:42.629Z,5.25
2023-04-02T05:37:26.687Z,5.29
2023-04-02T05:39:56.859Z,5.35
2023-04-02T05:42:35.300Z,5.32
2023-04-02T05:45:41.293Z,5.31
2023-04-02T05:48:30.710Z,5.27
2023-04-02T05:51:11.995Z,5.28
2023-04-02T05:54:05.055Z,5.29
2023-04-02T05:56:48.837Z,5.26
2023-04-02T05:59:34.387Z,5.12
2023-04-02T06:02:36.339Z,5.04
2023-04-02T06:05:16.829Z,5.00
2023-04-02T06:08:03.361Z,5.03
2023-04-02T06:10:51.201Z,5.05
2023-04-02T06:13:25.241Z,5.06
2023-04-02T06:15:56.538Z,5.02
2023-04-02T06:18:36.821Z,5.05
2023-04-02T06:21:14.254Z,5.04
2023-04-02T06:23:56.958Z,4.99
2023-04-02T06:26:39.447Z,4.96
2023-04-02T06:29:40.215Z,4.93
2023-04-02T06:32:16.505Z,4.90
2023-04-02T06:34:48.904Z,4.92
2023-04-02T06:37:40.037Z,4.98
2023-04-02T06:40:35.683Z,4.94
2023-04-02T06:43:35.665Z,4.88
2023-04-02T06:46:42.412Z,4.83
2023-04-02T06:49:36.412Z,4.81
2023-04-02T06:52:13.728Z,4.77
2023-04-02T06:54:46.503Z,4.69
2023-04-02T06:57:18.668Z,4.61
2023-04-02T06:59:53.543Z,4.59
2023-04-02T07:02:39.349Z,4.69
2023-04-02T07:05:13.775Z,4.70
2023-04-02T07:07:50.923Z,4.65
2023-04-02T07:10:22.947Z,4.63
2023-04-02T07:12:54.835Z,4.61
2023-04-02T07:15:27.897Z,4.66
2023-04-02T07:18:00.390Z,4.68
2023-04-02T07:20:38.959Z,4.74
2023-04-02T07:23:15.796Z,4.78
2023-04-02T07:25:50.327Z,4.64
2023-04-02T07:28:23.173Z,4.62
2023-04-02T07:30:56.493Z,4.65
2023-04-02T07:33:31.213Z,4.68
2023-04-02T07:36:03.059Z,4.73
2023-04-02T07:38:34.825Z,4.74
2023-04-02T07:41:07.407Z,4.76
2023-04-02T07:43:40.300Z,4.78
2023-04-02T07:46:16.576Z,4.83
2023-04-02T07:48:48.408Z,4.89
2023-04-02T07:51:26.620Z,4.90
2023-04-02T07:53:58.408Z,4.88
2023-04-02T07:56:31.829Z,4.91
2023-04-02T07:59:05.046Z,4.85
2023-04-02T08:01:36.925Z,4.81
2023-04-02T08:04:18.882Z,4.78
2023-04-02T08:06:50.786Z,4.75
2023-04-02T08:09:22.740Z,4.76
2023-04-02T08:11:54.497Z,4.81
2023-04-02T08:14:26.397Z,4.83
2023-04-02T08:16:58.408Z,4.77
2023-04-02T08:19:30.795Z,4.70
2023-04-02T08:22:02.603Z,4.70
2023-04-02T08:24:34.427Z,4.64
2023-04-02T08:27:07.566Z,4.68
2023-04-02T08:29:39.376Z,4.71
2023-04-02T08:32:16.220Z,4.77
2023-04-02T08:34:47.985Z,4.87
2023-04-02T08:37:19.770Z,4.89
2023-04-02T08:39:51.630Z,4.85
2023-04-02T08:42:46.201Z,4.84
2023-04-02T08:45:40.190Z,4.87
2023-04-02T08:48:15.495Z,4.90
2023-04-02T08:50:47.585Z,4.94
2023-04-02T08:53:34.625Z,5.00
2023-04-02T08:56:26.077Z,4.92
2023-04-02T08:59:03.707Z,4.89
2023-04-02T09:02:01.833Z,4.90
2023-04-02T09:04:34.660Z,4.93
2023-04-02T09:07:17.053Z,5.04
2023-04-02T09:09:51.082Z,5.04
2023-04-02T09:12:29.287Z,5.04
2023-04-02T09:15:29.506Z,5.10
2023-04-02T09:18:17.926Z,5.17
2023-04-02T09:20:50.635Z,5.11
2023-04-02T09:23:26.170Z,5.08
2023-04-02T09:26:04.003Z,5.08
2023-04-02T09:28:38.036Z,5.14
2023-04-02T09:31:22.326Z,5.18
2023-04-02T09:33:54.818Z,5.29
2023-04-02T09:36:38.317Z,5.38
2023-04-02T09:39:23.236Z,5.38
2023-04-02T09:42:05.156Z,5.33
2023-04-02T09:44:37.895Z,5.32
2023-04-02T09:47:27.365Z,5.35
2023-04-02T09:50:34.116Z,5.45
2023-04-02T09:53:31.341Z,5.49
2023-04-02T09:56:15.256Z,5.48
2023-04-02T09:59:03.221Z,5.45
2023-04-02T10:01:57.082Z,5.48
2023-04-02T10:04:46.793Z,5.45
2023-04-02T10:07:43.732Z,5.42
2023-04-02T10:10:18.694Z,5.43
2023-04-02T10:12:59.680Z,5.50
2023-04-02T10:15:54.259Z,5.61
2023-04-02T10:18:49.684Z,5.70
2023-04-02T10:21:35.098Z,5.71
2023-04-02T10:24:16.264Z,5.71
2023-04-02T10:27:22.577Z,5.75
2023-04-02T10:30:09.562Z,5.84
2023-04-02T10:33:06.869Z,5.84
2023-04-02T10:36:19.603Z,5.94
2023-04-02T10:38:58.105Z,5.98
2023-04-02T10:42:12.207Z,6.13
2023-04-02T10:45:41.496Z,6.02
2023-04-02T10:48:33.766Z,6.04
2023-04-02T10:51:25.369Z,6.12
2023-04-02T10:54:13.719Z,6.20
2023-04-02T10:56:51.186Z,6.19
2023-04-02T10:59:30.132Z,6.21
2023-04-02T11:02:34.179Z,6.24
2023-04-02T11:05:22.005Z,6.27
2023-04-02T11:08:10.652Z,6.35
2023-04-02T11:10:50.669Z,6.34
2023-04-02T11:13:31.503Z,6.37
2023-04-02T11:16:03.957Z,6.44
2023-04-02T11:18:37.184Z,6.48
2023-04-02T11:21:57.996Z,6.58
2023-04-02T11:24:38.561Z,6.63
2023-04-02T11:27:28.100Z,6.61
2023-04-02T11:30:26.493Z,6.48
2023-04-02T11:33:38.108Z,6.43
2023-04-02T11:36:53.636Z,6.40
2023-04-02T11:39:53.549Z,6.48
2023-04-02T11:42:34.506Z,6.49
2023-04-02T11:45:24.568Z,6.44
2023-04-02T11:47:59.587Z,6.33
2023-04-02T11:50:31.557Z,6.17
2023-04-02T11:53:20.466Z,6.08
2023-04-02T11:56:02.130Z,6.13
2023-04-02T11:59:00.379Z,6.20
2023-04-02T12:02:03.407Z,6.33
2023-04-02T12:05:16.398Z,6.52
2023-04-02T12:08:05.799Z,6.58
2023-04-02T12:10:56.595Z,6.69
2023-04-02T12:13:40.533Z,6.91
2023-04-02T12:16:14.273Z,7.01
2023-04-02T12:18:54.521Z,7.10
2023-04-02T12:21:29.488Z,7.05
2023-04-02T12:24:03.824Z,7.12
2023-04-02T12:26:38.084Z,7.35
2023-04-02T12:29:26.845Z,7.60
2023-04-02T12:31:59.971Z,7.64
2023-04-02T12:34:31.853Z,7.67
2023-04-02T12:37:05.517Z,7.90
2023-04-02T12:39:37.374Z,8.10
2023-04-02T12:42:37.632Z,8.50
2023-04-02T12:45:41.756Z,8.71
2023-04-02T12:48:13.731Z,8.73
2023-04-02T12:50:47.248Z,8.78
2023-04-02T12:53:24.057Z,8.73
2023-04-02T12:55:56.315Z,8.75
2023-04-02T12:58:41.442Z,8.74
2023-04-02T13:01:24.697Z,8.77
2023-04-02T13:04:12.383Z,8.78
2023-04-02T13:06:55.163Z,9.11
2023-04-02T13:09:39.283Z,9.34
2023-04-02T13:12:34.514Z,9.26
2023-04-02T13:15:19.964Z,9.00
2023-04-02T13:18:13.375Z,8.81
2023-04-02T13:21:06.251Z,8.97
2023-04-02T13:23:38.112Z,9.11
2023-04-02T13:26:24.511Z,9.35
2023-04-02T13:29:19.340Z,9.65
2023-04-02T13:31:54.115Z,9.88
2023-04-02T13:34:26.585Z,9.90
2023-04-02T13:37:00.444Z,9.96
2023-04-02T13:39:32.214Z,10.06
2023-04-02T13:42:06.604Z,10.16
2023-04-02T13:44:38.428Z,10.34
2023-04-02T13:47:14.753Z,10.46
2023-04-02T13:49:49.844Z,10.53
2023-04-02T13:52:21.593Z,10.70
2023-04-02T13:54:59.994Z,10.83
2023-04-02T13:57:31.816Z,10.77
2023-04-02T14:00:11.015Z,10.64
2023-04-02T14:02:54.012Z,10.58
2023-04-02T14:06:03.007Z,10.37
2023-04-02T14:08:52.507Z,10.12
2023-04-02T14:12:10.932Z,10.12
2023-04-02T14:15:27.568Z,10.04
2023-04-02T14:18:41.332Z,10.26
2023-04-02T14:21:43.743Z,10.50
2023-04-02T14:24:41.836Z,10.69
2023-04-02T14:27:42.856Z,10.68
2023-04-02T14:30:28.169Z,10.80
2023-04-02T14:33:30.394Z,11.03
2023-04-02T14:36:28.302Z,11.07
2023-04-02T14:39:18.124Z,11.13
2023-04-02T14:42:13.734Z,11.02
2023-04-02T14:44:57.745Z,10.95
2023-04-02T14:47:39.703Z,10.95
2023-04-02T14:50:41.805Z,11.08
2023-04-02T14:53:48.902Z,11.23
2023-04-02T14:56:24.506Z,11.24
2023-04-02T14:59:43.224Z,11.26
2023-04-02T15:02:30.465Z,11.21
2023-04-02T15:05:32.391Z,11.15
2023-04-02T15:08:29.553Z,11.07
2023-04-02T15:11:08.423Z,10.93
2023-04-02T15:13:52.299Z,10.93
2023-04-02T15:16:28.824Z,11.02
2023-04-02T15:19:02.825Z,11.11
2023-04-02T15:22:03.922Z,11.15
2023-04-02T15:25:20.624Z,11.04
2023-04-02T15:28:13.660Z,11.03
2023-04-02T15:30:54.368Z,10.95
2023-04-02T15:33:40.536Z,10.84
2023-04-02T15:36:55.939Z,10.66
2023-04-02T15:39:56.737Z,10.75
2023-04-02T15:42:34.716Z,10.66
2023-04-02T15:45:08.119Z,10.72
2023-04-02T15:48:11.872Z,10.85
2023-04-02T15:50:49.564Z,10.94
2023-04-02T15:53:39.188Z,11.04
2023-04-02T15:56:38.551Z,11.03
2023-04-02T15:59:40.847Z,11.09
2023-04-02T16:02:43.767Z,11.08
2023-04-02T16:05:43.394Z,10.92
2023-04-02T16:09:00.904Z,10.65
2023-04-02T16:11:33.660Z,10.49
2023-04-02T16:14:27.908Z,10.47
2023-04-02T16:17:17.500Z,10.47
2023-04-02T16:20:18.393Z,10.38
2023-04-02T16:23:22.282Z,10.44
2023-04-02T16:26:06.165Z,10.46
2023-04-02T16:29:02.269Z,10.48
2023-04-02T16:32:02.251Z,10.47
2023-04-02T16:34:57.644Z,10.48
2023-04-02T16:37:50.333Z,10.47
2023-04-02T16:40:25.139Z,10.44
2023-04-02T16:43:08.681Z,10.50
2023-04-02T16:46:15.760Z,10.40
2023-04-02T16:49:04.711Z,10.37
2023-04-02T16:52:09.230Z,10.39
2023-04-02T16:55:01.172Z,10.44
2023-04-02T16:57:56.945Z,10.45
2023-04-02T17:01:05.037Z,10.33
2023-04-02T17:04:32.582Z,10.26
2023-04-02T17:07:34.576Z,10.12
2023-04-02T17:10:30.155Z,9.99
2023-04-02T17:13:39.063Z,9.95
2023-04-02T17:16:32.467Z,9.94
2023-04-02T17:19:14.020Z,9.91
2023-04-02T17:21:52.186Z,9.91
2023-04-02T17:24:31.968Z,9.89
2023-04-02T17:27:17.076Z,10.01
2023-04-02T17:29:55.067Z,9.99
2023-04-02T17:32:32.620Z,9.99
2023-04-02T17:35:32.188Z,9.91
2023-04-02T17:38:30.415Z,9.85
2023-04-02T17:41:36.596Z,9.81
2023-04-02T17:44:42.270Z,9.86
2023-04-02T17:47:46.267Z,10.10
2023-04-02T17:50:38.660Z,10.25
2023-04-02T17:53:34.708Z,10.41
2023-04-02T17:56:33.586Z,10.32
2023-04-02T17:59:23.719Z,10.15
2023-04-02T18:02:24.707Z,9.98
2023-04-02T18:05:32.762Z,9.76
2023-04-02T18:08:34.826Z,9.56
2023-04-02T18:11:14.177Z,9.42
2023-04-02T18:14:42.360Z,9.27
2023-04-02T18:17:38.645Z,9.08
2023-04-02T18:20:42.899Z,8.94
2023-04-02T18:23:36.393Z,8.83
2023-04-02T18:26:44.258Z,8.71
2023-04-02T18:29:40.269Z,8.59
2023-04-02T18:33:03.308Z,8.51
2023-04-02T18:35:53.527Z,8.39
2023-04-02T18:38:51.016Z,8.31
2023-04-02T18:41:57.461Z,8.22
2023-04-02T18:45:03.382Z,8.14
2023-04-02T18:48:01.608Z,8.09
2023-04-02T18:50:45.965Z,8.05
2023-04-02T18:53:24.286Z,7.98
2023-04-02T18:56:13.998Z,7.93
2023-04-02T18:58:52.798Z,7.89
2023-04-02T19:01:39.611Z,7.83
2023-04-02T19:04:20.543Z,7.77
2023-04-02T19:07:04.109Z,7.70
2023-04-02T19:09:44.189Z,7.64
2023-04-02T19:12:22.228Z,7.58
2023-04-02T19:14:55.914Z,7.55
2023-04-02T19:17:39.450Z,7.51
2023-04-02T19:20:40.783Z,7.45
2023-04-02T19:24:00.054Z,7.37
2023-04-02T19:27:27.282Z,7.26
2023-04-02T19:30:17.169Z,7.10
2023-04-02T19:33:27.095Z,7.04
2023-04-02T19:36:41.005Z,6.99
2023-04-02T19:39:50.032Z,6.91
2023-04-02T19:42:46.239Z,6.85
2023-04-02T19:45:47.859Z,6.78
2023-04-02T19:48:26.720Z,6.71
2023-04-02T19:50:58.460Z,6.65
2023-04-02T19:53:30.414Z,6.60
2023-04-02T19:56:03.406Z,6.54
2023-04-02T19:58:36.476Z,6.49
2023-04-02T20:01:08.231Z,6.41
2023-04-02T20:03:39.992Z,6.33
2023-04-02T20:06:12.141Z,6.28
2023-04-02T20:08:43.884Z,6.23
2023-04-02T20:11:27.624Z,6.21
2023-04-02T20:13:59.304Z,6.16
2023-04-02T20:16:32.704Z,6.11
2023-04-02T20:19:04.354Z,6.07
2023-04-02T20:21:38.548Z,6.03
2023-04-02T20:24:11.225Z,5.97
2023-04-02T20:26:43.770Z,5.92
2023-04-02T20:29:15.664Z,5.87
2023-04-02T20:31:47.427Z,5.81
2023-04-02T20:34:19.252Z,5.73
2023-04-02T20:36:51.847Z,5.70
2023-04-02T20:39:24.123Z,5.66
2023-04-02T20:42:00.938Z,5.63
2023-04-02T20:44:32.581Z,5.60
2023-04-02T20:47:07.036Z,5.53
2023-04-02T20:49:38.654Z,5.48
2023-04-02T20:52:10.765Z,5.43
2023-04-02T20:54:42.505Z,5.40
2023-04-02T20:57:15.607Z,5.38
2023-04-02T20:59:47.335Z,5.35
2023-04-02T21:02:19.095Z,5.32
2023-04-02T21:04:50.943Z,5.26
2023-04-02T21:07:22.745Z,5.22
2023-04-02T21:09:54.425Z,5.21
2023-04-02T21:12:27.000Z,5.15
2023-04-02T21:15:01.805Z,5.08
2023-04-02T21:17:34.404Z,4.95
2023-04-02T21:20:06.903Z,4.86
2023-04-02T21:22:40.799Z,4.77
2023-04-02T21:25:12.575Z,4.71
2023-04-02T21:27:44.339Z,4.72
2023-04-02T21:30:16.386Z,4.74
2023-04-02T21:32:48.152Z,4.72
2023-04-02T21:35:19.834Z,4.68
2023-04-02T21:37:51.956Z,4.64
2023-04-02T21:40:24.659Z,4.57
2023-04-02T21:42:57.605Z,4.47
2023-04-02T21:45:29.372Z,4.43
2023-04-02T21:48:01.326Z,4.42
2023-04-02T21:50:33.152Z,4.40
2023-04-02T21:53:04.971Z,4.41
2023-04-02T21:55:36.646Z,4.44
2023-04-02T21:58:08.531Z,4.42
2023-04-02T22:00:40.386Z,4.38
2023-04-02T22:03:18.504Z,4.31
2023-04-02T22:06:11.899Z,4.23
2023-04-02T22:08:44.661Z,4.18
2023-04-02T22:11:21.257Z,4.19
2023-04-02T22:13:54.118Z,4.20
2023-04-02T22:16:29.846Z,4.23
2023-04-02T22:19:06.010Z,4.22
2023-04-02T22:21:38.353Z,4.23
2023-04-02T22:24:14.848Z,4.22
2023-04-02T22:26:47.383Z,4.20
2023-04-02T22:29:19.181Z,4.16
2023-04-02T22:31:51.035Z,4.05
2023-04-02T22:34:22.734Z,3.95
2023-04-02T22:36:54.508Z,3.86
2023-04-02T22:39:26.364Z,3.77
2023-04-02T22:41:58.055Z,3.72
2023-04-02T22:44:29.803Z,3.71
2023-04-02T22:47:01.570Z,3.71
2023-04-02T22:49:33.433Z,3.69
2023-04-02T22:52:06.067Z,3.68
2023-04-02T22:54:37.843Z,3.68
2023-04-02T22:57:09.671Z,3.69
2023-04-02T22:59:41.476Z,3.72
2023-04-02T23:02:13.278Z,3.72
2023-04-02T23:04:45.111Z,3.70
2023-04-02T23:07:17.117Z,3.67
2023-04-02T23:09:49.398Z,3.63
2023-04-02T23:12:21.375Z,3.59
2023-04-02T23:14:53.621Z,3.57
2023-04-02T23:17:25.387Z,3.53
2023-04-02T23:19:57.177Z,3.53
2023-04-02T23:22:28.896Z,3.54
2023-04-02T23:25:00.842Z,3.52
2023-04-02T23:27:33.642Z,3.51
2023-04-02T23:30:09.929Z,3.48
2023-04-02T23:32:47.888Z,3.50
2023-04-02T23:35:21.917Z,3.55
2023-04-02T23:37:55.133Z,3.52
2023-04-02T23:40:29.371Z,3.50
2023-04-02T23:43:03.369Z,3.48
2023-04-02T23:45:39.168Z,3.50
2023-04-02T23:48:13.702Z,3.49
2023-04-02T23:50:48.774Z,3.49
2023-04-02T23:53:21.937Z,3.47
2023-04-02T23:55:56.142Z,3.49
2023-04-02T23:58:29.394Z,3.49
